Time;durP1;ratioP1;P1;durP2;ratioP2;P2;SDS_P1;SDS_P2;PMS_P1;PMS_P2;Temp;Humidity;BMP_temperature;BMP_pressure;BME280_temperature;BME280_humidity;BME280_pressure;Samples;Min_cycle;Max_cycle;Signal;HPM_P1;HPM_P2
2022/07/01 00:00:34;;;;;;;0.35;0.35;;;;;;;;;;5014599;28;20241;-88
2022/07/01 00:03:02;;;;;;;2.20;0.52;;;;;;;;;;5015049;28;20208;-88
2022/07/01 00:05:30;;;;;;;0.68;0.50;;;;;;;;;;5014422;28;20277;-88
2022/07/01 00:07:57;;;;;;;0.50;0.50;;;;;;;;;;5014837;28;20211;-88
2022/07/01 00:10:24;;;;;;;0.40;0.40;;;;;;;;;;5014365;28;20242;-86
2022/07/01 00:12:51;;;;;;;3.00;0.63;;;;;;;;;;5015309;28;20218;-88
2022/07/01 00:15:18;;;;;;;0.30;0.30;;;;;;;;;;5014333;28;20235;-88
2022/07/01 00:17:45;;;;;;;0.85;0.50;;;;;;;;;;5025403;28;20202;-85
2022/07/01 00:20:14;;;;;;;0.40;0.40;;;;;;;;;;5022201;28;20234;-85
2022/07/01 00:22:41;;;;;;;0.73;0.60;;;;;;;;;;5015145;28;20262;-88
2022/07/01 00:25:09;;;;;;;1.02;0.80;;;;;;;;;;5014104;28;20236;-90
2022/07/01 00:27:38;;;;;;;0.63;0.40;;;;;;;;;;5014823;28;20209;-87
2022/07/01 00:30:05;;;;;;;0.80;0.60;;;;;;;;;;5014042;28;20239;-88
2022/07/01 00:32:32;;;;;;;0.73;0.57;;;;;;;;;;5014729;28;20218;-88
2022/07/01 00:34:59;;;;;;;0.50;0.50;;;;;;;;;;5013846;28;20231;-88
2022/07/01 00:37:28;;;;;;;1.00;0.70;;;;;;;;;;5014391;28;20220;-88
2022/07/01 00:39:55;;;;;;;2.40;0.63;;;;;;;;;;5014098;28;20231;-88
2022/07/01 00:42:22;;;;;;;0.40;0.40;;;;;;;;;;5014165;28;20230;-85
2022/07/01 00:44:49;;;;;;;0.40;0.40;;;;;;;;;;5013172;28;20239;-86
2022/07/01 00:47:17;;;;;;;0.65;0.63;;;;;;;;;;5014148;28;20223;-85
2022/07/01 00:49:44;;;;;;;0.50;0.50;;;;;;;;;;5014178;28;20246;-85
2022/07/01 00:52:11;;;;;;;0.70;0.70;;;;;;;;;;5014664;28;20254;-86
2022/07/01 00:54:40;;;;;;;0.60;0.60;;;;;;;;;;5013524;28;20239;-85
2022/07/01 00:57:08;;;;;;;0.40;0.40;;;;;;;;;;5013849;28;20273;-88
2022/07/01 00:59:35;;;;;;;0.43;0.43;;;;;;;;;;5012256;28;20323;-86
2022/07/01 01:02:02;;;;;;;0.60;0.60;;;;;;;;;;5013868;28;20698;-86
2022/07/01 01:04:29;;;;;;;0.52;0.45;;;;;;;;;;5012763;28;20231;-85
2022/07/01 01:06:57;;;;;;;0.50;0.50;;;;;;;;;;5009342;28;20236;-86
2022/07/01 01:09:25;;;;;;;1.27;0.70;;;;;;;;;;5012708;28;20707;-85
2022/07/01 01:11:53;;;;;;;0.50;0.50;;;;;;;;;;5013501;28;20231;-85
2022/07/01 01:14:21;;;;;;;0.60;0.60;;;;;;;;;;5012787;28;20594;-86
2022/07/01 01:16:48;;;;;;;0.68;0.68;;;;;;;;;;5013385;28;20765;-86
2022/07/01 01:19:15;;;;;;;0.70;0.60;;;;;;;;;;5013064;28;20262;-86
2022/07/01 01:21:43;;;;;;;0.43;0.43;;;;;;;;;;5013147;28;20879;-86
2022/07/01 01:24:10;;;;;;;0.50;0.50;;;;;;;;;;5012680;28;20242;-85
2022/07/01 01:26:38;;;;;;;0.70;0.70;;;;;;;;;;5013025;28;20232;-87
2022/07/01 01:29:07;;;;;;;0.40;0.40;;;;;;;;;;5012915;28;20239;-87
2022/07/01 01:31:34;;;;;;;1.05;1.05;;;;;;;;;;5013395;28;20207;-86
2022/07/01 01:34:01;;;;;;;0.50;0.50;;;;;;;;;;5012276;28;20231;-86
2022/07/01 01:36:28;;;;;;;0.77;0.60;;;;;;;;;;5013006;28;20754;-87
2022/07/01 01:38:58;;;;;;;0.50;0.50;;;;;;;;;;5012232;28;20250;-89
2022/07/01 01:41:25;;;;;;;0.60;0.60;;;;;;;;;;5013288;28;20680;-87
2022/07/01 01:43:52;;;;;;;0.98;0.60;;;;;;;;;;5012243;28;20239;-88
2022/07/01 01:46:19;;;;;;;0.55;0.52;;;;;;;;;;5013276;28;20224;-87
2022/07/01 01:48:46;;;;;;;2.58;0.63;;;;;;;;;;5012858;28;20250;-87
2022/07/01 01:51:14;;;;;;;0.70;0.70;;;;;;;;;;5013232;28;20207;-87
2022/07/01 01:53:41;;;;;;;0.60;0.60;;;;;;;;;;5012359;28;20605;-88
2022/07/01 01:56:09;;;;;;;0.50;0.50;;;;;;;;;;5012706;28;20230;-86
2022/07/01 01:58:36;;;;;;;0.50;0.50;;;;;;;;;;5012369;28;20254;-87
2022/07/01 02:01:04;;;;;;;0.50;0.50;;;;;;;;;;5013118;28;20214;-86
2022/07/01 02:03:31;;;;;;;0.60;0.60;;;;;;;;;;5012384;28;20204;-87
2022/07/01 02:05:58;;;;;;;1.50;0.80;;;;;;;;;;5012778;28;20231;-88
2022/07/01 02:08:25;;;;;;;0.60;0.60;;;;;;;;;;5012537;28;20207;-90
2022/07/01 02:10:52;;;;;;;0.60;0.60;;;;;;;;;;5013236;28;20223;-85
2022/07/01 02:13:20;;;;;;;0.73;0.60;;;;;;;;;;5012338;28;20282;-88
2022/07/01 02:15:49;;;;;;;0.87;0.80;;;;;;;;;;5012722;28;20231;-90
2022/07/01 02:18:16;;;;;;;0.70;0.70;;;;;;;;;;5012367;28;20346;-85
2022/07/01 02:20:43;;;;;;;0.60;0.60;;;;;;;;;;5012409;28;20287;-87
2022/07/01 02:23:10;;;;;;;0.50;0.50;;;;;;;;;;5012344;28;20234;-83
2022/07/01 02:25:37;;;;;;;0.60;0.50;;;;;;;;;;5012035;28;20251;-86
2022/07/01 02:28:05;;;;;;;0.50;0.50;;;;;;;;;;5012584;28;20245;-85
2022/07/01 02:30:36;;;;;;;0.70;0.70;;;;;;;;;;5011753;28;20881;-88
2022/07/01 02:33:03;;;;;;;0.77;0.77;;;;;;;;;;5012284;28;20632;-86
2022/07/01 02:35:30;;;;;;;0.63;0.63;;;;;;;;;;5011692;28;20231;-86
2022/07/01 02:37:57;;;;;;;0.80;0.70;;;;;;;;;;5012528;28;20208;-86
2022/07/01 02:40:24;;;;;;;0.80;0.80;;;;;;;;;;5012014;28;20243;-86
2022/07/01 02:42:51;;;;;;;0.90;0.87;;;;;;;;;;5012152;28;20211;-88
2022/07/01 02:45:18;;;;;;;0.50;0.50;;;;;;;;;;5011806;28;20588;-86
2022/07/01 02:47:46;;;;;;;1.10;0.77;;;;;;;;;;5012535;28;20667;-86
2022/07/01 02:50:15;;;;;;;0.70;0.70;;;;;;;;;;5012340;28;20239;-87
2022/07/01 02:52:43;;;;;;;0.93;0.60;;;;;;;;;;5016010;28;20207;-86
2022/07/01 02:55:11;;;;;;;2.80;0.70;;;;;;;;;;5015361;28;20235;-86
2022/07/01 02:57:38;;;;;;;1.63;0.83;;;;;;;;;;5016137;28;20218;-87
2022/07/01 03:00:06;;;;;;;1.80;0.70;;;;;;;;;;5016015;28;20253;-84
2022/07/01 03:02:33;;;;;;;1.80;0.80;;;;;;;;;;5019946;28;20580;-86
2022/07/01 03:05:02;;;;;;;0.73;0.70;;;;;;;;;;5015422;28;20246;-88
2022/07/01 03:07:29;;;;;;;0.70;0.70;;;;;;;;;;5015708;28;20749;-86
2022/07/01 03:09:56;;;;;;;0.77;0.77;;;;;;;;;;5015256;28;20243;-87
2022/07/01 03:12:27;;;;;;;1.10;1.10;;;;;;;;;;5015706;28;20218;-85
2022/07/01 03:14:54;;;;;;;0.90;0.90;;;;;;;;;;5014826;28;20719;-86
2022/07/01 03:17:22;;;;;;;1.27;1.20;;;;;;;;;;5015403;28;20227;-84
2022/07/01 03:19:49;;;;;;;1.17;1.10;;;;;;;;;;5014880;28;20238;-86
2022/07/01 03:22:17;;;;;;;1.93;1.27;;;;;;;;;;5015320;28;20204;-87
2022/07/01 03:24:44;;;;;;;1.80;1.70;;;;;;;;;;5014694;28;20235;-87
2022/07/01 03:27:11;;;;;;;1.90;1.80;;;;;;;;;;5015302;28;20223;-86
2022/07/01 03:29:38;;;;;;;2.17;1.80;;;;;;;;;;5014359;28;20239;-86
2022/07/01 03:32:06;;;;;;;1.80;1.70;;;;;;;;;;5015410;28;20204;-86
2022/07/01 03:34:33;;;;;;;1.80;1.70;;;;;;;;;;5016404;28;20318;-86
2022/07/01 03:37:00;;;;;;;2.07;1.97;;;;;;;;;;5033064;28;20691;-86
2022/07/01 03:39:29;;;;;;;1.90;1.80;;;;;;;;;;5016295;28;20235;-86
2022/07/01 03:41:56;;;;;;;2.03;1.90;;;;;;;;;;5017259;28;20212;-87
2022/07/01 03:44:23;;;;;;;1.90;1.80;;;;;;;;;;5015976;28;20758;-86
2022/07/01 03:46:50;;;;;;;3.00;1.70;;;;;;;;;;5016020;28;20578;-87
2022/07/01 03:49:18;;;;;;;2.53;1.60;;;;;;;;;;5015705;28;20610;-87
2022/07/01 03:51:45;;;;;;;2.23;1.47;;;;;;;;;;5015780;28;20203;-86
2022/07/01 03:54:29;;;;;;;1.63;1.40;;;;;;;;;;5014550;28;20314;-88
2022/07/01 03:56:57;;;;;;;1.40;1.30;;;;;;;;;;5015329;28;20277;-87
2022/07/01 03:59:24;;;;;;;1.23;1.23;;;;;;;;;;5015319;28;20239;-86
2022/07/01 04:01:51;;;;;;;1.10;1.10;;;;;;;;;;5015129;28;20215;-87
2022/07/01 04:04:18;;;;;;;2.73;1.37;;;;;;;;;;5014666;28;20262;-87
2022/07/01 04:06:46;;;;;;;1.40;1.30;;;;;;;;;;5014809;28;20250;-86
2022/07/01 04:09:14;;;;;;;1.40;1.10;;;;;;;;;;5014473;28;20239;-87
2022/07/01 04:11:41;;;;;;;0.80;0.80;;;;;;;;;;5015364;28;20202;-86
2022/07/01 04:14:10;;;;;;;3.10;1.10;;;;;;;;;;5014879;28;20231;-88
2022/07/01 04:16:37;;;;;;;1.23;0.70;;;;;;;;;;5015440;28;20223;-86
2022/07/01 04:19:05;;;;;;;1.80;0.80;;;;;;;;;;5014769;28;20231;-87
2022/07/01 04:24:17;;;;;;;1.27;0.80;;;;;;;;;;5014343;28;20302;-89
2022/07/01 04:26:45;;;;;;;0.77;0.77;;;;;;;;;;5015116;28;20227;-87
2022/07/01 04:29:13;;;;;;;0.90;0.90;;;;;;;;;;5014516;28;20242;-87
2022/07/01 04:31:41;;;;;;;1.00;0.83;;;;;;;;;;5014608;28;20203;-88
2022/07/01 04:34:08;;;;;;;0.73;0.73;;;;;;;;;;5014393;28;20592;-87
2022/07/01 04:36:35;;;;;;;0.80;0.80;;;;;;;;;;5015052;28;20235;-87
2022/07/01 04:39:03;;;;;;;0.80;0.80;;;;;;;;;;5014425;28;20231;-87
2022/07/01 04:44:17;;;;;;;0.60;0.60;;;;;;;;;;5013877;28;20596;-87
2022/07/01 04:46:44;;;;;;;0.90;0.90;;;;;;;;;;5013976;28;20237;-87
2022/07/01 04:49:11;;;;;;;0.93;0.80;;;;;;;;;;5013809;28;20315;-86
2022/07/01 04:51:38;;;;;;;1.07;0.60;;;;;;;;;;5014351;28;20211;-87
2022/07/01 04:54:06;;;;;;;1.03;0.93;;;;;;;;;;5013751;28;20235;-87
2022/07/01 04:56:33;;;;;;;0.70;0.70;;;;;;;;;;5014257;28;20259;-86
2022/07/01 04:59:00;;;;;;;0.90;0.80;;;;;;;;;;5013845;28;20241;-86
2022/07/01 05:01:29;;;;;;;1.10;1.10;;;;;;;;;;5014086;28;20672;-87
2022/07/01 05:03:56;;;;;;;1.07;0.80;;;;;;;;;;5013690;28;20719;-90
2022/07/01 05:06:23;;;;;;;0.80;0.70;;;;;;;;;;5013781;28;20231;-87
2022/07/01 05:08:50;;;;;;;0.90;0.90;;;;;;;;;;5013919;28;20231;-85
2022/07/01 05:11:17;;;;;;;1.00;1.00;;;;;;;;;;5014028;28;20231;-82
2022/07/01 05:13:45;;;;;;;0.90;0.90;;;;;;;;;;5012161;28;20242;-83
2022/07/01 05:16:12;;;;;;;1.27;1.17;;;;;;;;;;5013454;28;20230;-83
2022/07/01 05:24:10;;;;;;;0.77;0.77;;;;;;;;;;5015334;28;20609;-79
2022/07/01 05:26:37;;;;;;;0.97;0.97;;;;;;;;;;5013229;28;20270;-79
2022/07/01 05:29:04;;;;;;;0.80;0.80;;;;;;;;;;5013807;28;20242;-80
2022/07/01 05:31:31;;;;;;;1.17;1.00;;;;;;;;;;5013749;28;20227;-79
2022/07/01 05:33:59;;;;;;;0.83;0.83;;;;;;;;;;5015518;28;20258;-79
2022/07/01 05:36:26;;;;;;;0.97;0.97;;;;;;;;;;5013336;28;20258;-79
2022/07/01 05:38:54;;;;;;;1.33;0.90;;;;;;;;;;5015152;28;20231;-82
2022/07/01 05:41:21;;;;;;;1.77;0.90;;;;;;;;;;5014114;28;20723;-79
2022/07/01 05:43:48;;;;;;;1.10;1.10;;;;;;;;;;5014098;28;20235;-80
2022/07/01 05:46:15;;;;;;;1.40;0.73;;;;;;;;;;5014053;28;20234;-79
2022/07/01 05:48:42;;;;;;;0.80;0.80;;;;;;;;;;5013284;28;20238;-80
2022/07/01 05:51:10;;;;;;;1.77;0.90;;;;;;;;;;5015362;28;20762;-80
2022/07/01 05:53:37;;;;;;;1.03;1.00;;;;;;;;;;5014651;28;20231;-79
2022/07/01 05:56:05;;;;;;;1.17;1.00;;;;;;;;;;5016136;28;20234;-80
2022/07/01 05:58:32;;;;;;;1.10;1.00;;;;;;;;;;5014127;28;20202;-79
2022/07/01 06:00:59;;;;;;;1.10;1.10;;;;;;;;;;5015589;28;20203;-81
2022/07/01 06:03:26;;;;;;;1.37;1.10;;;;;;;;;;5013560;28;20207;-79
2022/07/01 06:05:53;;;;;;;0.97;0.90;;;;;;;;;;5013848;28;20246;-79
2022/07/01 06:08:21;;;;;;;1.20;1.10;;;;;;;;;;5012843;28;20219;-79
2022/07/01 06:10:48;;;;;;;1.10;1.10;;;;;;;;;;5012778;28;20231;-80
2022/07/01 06:13:16;;;;;;;1.20;1.10;;;;;;;;;;5014624;28;20207;-80
2022/07/01 06:15:43;;;;;;;1.20;1.10;;;;;;;;;;5013402;28;20235;-81
2022/07/01 06:18:10;;;;;;;0.67;0.67;;;;;;;;;;5013369;28;20210;-79
2022/07/01 06:20:37;;;;;;;1.23;1.03;;;;;;;;;;5012173;28;20745;-80
2022/07/01 06:23:04;;;;;;;1.20;0.90;;;;;;;;;;5014405;28;20294;-80
2022/07/01 06:25:32;;;;;;;1.00;1.00;;;;;;;;;;5013922;28;20250;-80
2022/07/01 06:27:59;;;;;;;1.00;1.00;;;;;;;;;;5014049;28;20218;-81
2022/07/01 06:30:27;;;;;;;1.10;1.10;;;;;;;;;;5014320;28;20239;-82
2022/07/01 06:32:54;;;;;;;1.00;1.00;;;;;;;;;;5014415;28;20218;-79
2022/07/01 06:35:21;;;;;;;0.90;0.90;;;;;;;;;;5014206;28;20234;-80
2022/07/01 06:37:48;;;;;;;2.90;1.20;;;;;;;;;;5014089;28;20242;-80
2022/07/01 06:40:15;;;;;;;1.10;1.10;;;;;;;;;;5012328;28;20599;-79
2022/07/01 06:42:43;;;;;;;1.10;1.00;;;;;;;;;;5012998;28;20214;-80
2022/07/01 06:45:11;;;;;;;0.93;0.90;;;;;;;;;;5013447;28;20239;-79
2022/07/01 06:47:38;;;;;;;1.47;0.90;;;;;;;;;;5014425;28;20298;-83
2022/07/01 06:50:05;;;;;;;0.90;0.90;;;;;;;;;;5013360;28;20234;-80
2022/07/01 06:52:32;;;;;;;1.00;1.00;;;;;;;;;;5013815;28;20243;-79
2022/07/01 06:55:00;;;;;;;1.20;1.10;;;;;;;;;;5016511;28;20238;-82
2022/07/01 06:57:27;;;;;;;1.10;1.00;;;;;;;;;;5016073;28;20664;-80
2022/07/01 06:59:56;;;;;;;2.07;1.10;;;;;;;;;;5016375;28;20239;-80
2022/07/01 07:02:23;;;;;;;1.00;1.00;;;;;;;;;;5014964;28;20215;-80
2022/07/01 07:04:50;;;;;;;1.27;1.03;;;;;;;;;;5014717;28;20246;-82
2022/07/01 07:07:17;;;;;;;1.17;1.07;;;;;;;;;;5014634;28;20592;-80
2022/07/01 07:09:44;;;;;;;2.07;1.00;;;;;;;;;;5013208;28;20239;-79
2022/07/01 07:12:11;;;;;;;1.43;1.30;;;;;;;;;;5013855;28;20234;-80
2022/07/01 07:14:38;;;;;;;0.93;0.87;;;;;;;;;;5013623;28;20601;-81
2022/07/01 07:17:07;;;;;;;1.70;1.57;;;;;;;;;;5015311;28;20227;-79
2022/07/01 07:19:34;;;;;;;1.40;1.30;;;;;;;;;;5013735;28;20236;-79
2022/07/01 07:22:01;;;;;;;3.13;1.77;;;;;;;;;;5012544;28;20208;-79
2022/07/01 07:24:28;;;;;;;0.80;0.80;;;;;;;;;;5011412;28;20286;-79
2022/07/01 07:26:55;;;;;;;2.27;1.10;;;;;;;;;;5028557;28;20227;-85
2022/07/01 07:29:22;;;;;;;1.63;1.43;;;;;;;;;;5030237;28;20235;-79
2022/07/01 07:31:49;;;;;;;1.27;1.23;;;;;;;;;;5011872;28;20231;-81
2022/07/01 07:34:17;;;;;;;1.67;1.57;;;;;;;;;;5011586;28;20246;-78
2022/07/01 07:36:44;;;;;;;2.20;1.50;;;;;;;;;;5013125;28;20282;-77
2022/07/01 07:39:11;;;;;;;1.50;1.40;;;;;;;;;;5015525;28;20231;-79
2022/07/01 07:41:39;;;;;;;1.50;1.40;;;;;;;;;;5015311;28;20203;-78
2022/07/01 07:44:06;;;;;;;1.97;1.87;;;;;;;;;;5014744;28;20282;-79
2022/07/01 07:46:33;;;;;;;2.50;1.60;;;;;;;;;;5016158;28;20599;-79
2022/07/01 07:49:00;;;;;;;1.90;1.80;;;;;;;;;;5021141;28;20231;-79
2022/07/01 07:51:28;;;;;;;1.90;1.57;;;;;;;;;;5016292;28;20311;-78
2022/07/01 07:53:55;;;;;;;3.03;1.87;;;;;;;;;;5015326;28;20235;-79
2022/07/01 07:56:22;;;;;;;2.03;1.57;;;;;;;;;;5015406;28;20231;-78
2022/07/01 07:58:49;;;;;;;1.73;1.63;;;;;;;;;;5014600;28;20735;-78
2022/07/01 08:01:16;;;;;;;2.63;1.73;;;;;;;;;;5015433;28;20204;-78
2022/07/01 08:03:45;;;;;;;1.97;1.80;;;;;;;;;;5014419;28;20246;-78
2022/07/01 08:06:12;;;;;;;2.40;1.80;;;;;;;;;;5014481;28;20293;-81
2022/07/01 08:08:40;;;;;;;1.87;1.67;;;;;;;;;;5014316;28;20235;-79
2022/07/01 08:11:07;;;;;;;2.13;1.60;;;;;;;;;;5014712;28;20223;-79
2022/07/01 08:13:35;;;;;;;3.27;2.30;;;;;;;;;;5014056;28;20231;-79
2022/07/01 08:16:02;;;;;;;2.27;1.70;;;;;;;;;;5014876;28;20285;-79
2022/07/01 08:18:29;;;;;;;3.17;1.80;;;;;;;;;;5013874;28;20584;-79
2022/07/01 08:20:56;;;;;;;3.90;1.77;;;;;;;;;;5014111;28;20676;-80
2022/07/01 08:23:24;;;;;;;3.73;1.60;;;;;;;;;;5013835;28;20253;-79
2022/07/01 08:25:52;;;;;;;6.50;1.70;;;;;;;;;;5014074;28;20723;-79
2022/07/01 08:28:19;;;;;;;2.53;1.60;;;;;;;;;;5014098;28;20203;-78
2022/07/01 08:30:46;;;;;;;1.60;1.50;;;;;;;;;;5014293;28;20227;-82
2022/07/01 08:33:13;;;;;;;1.80;1.70;;;;;;;;;;5013832;28;20262;-79
2022/07/01 08:35:40;;;;;;;1.77;1.67;;;;;;;;;;5014977;28;20223;-79
2022/07/01 08:38:07;;;;;;;1.80;1.70;;;;;;;;;;5015967;28;20208;-79
2022/07/01 08:40:36;;;;;;;1.93;1.60;;;;;;;;;;5013875;28;20235;-81
2022/07/01 08:43:05;;;;;;;2.20;1.80;;;;;;;;;;5014102;28;20230;-80
2022/07/01 08:45:33;;;;;;;1.87;1.73;;;;;;;;;;5013033;28;20254;-78
2022/07/01 08:48:01;;;;;;;2.23;1.70;;;;;;;;;;5012807;28;20215;-78
2022/07/01 08:50:29;;;;;;;2.00;1.73;;;;;;;;;;5013179;28;20285;-78
2022/07/01 08:52:56;;;;;;;2.93;1.80;;;;;;;;;;5013916;28;20207;-78
2022/07/01 08:55:24;;;;;;;2.03;1.67;;;;;;;;;;5012916;28;20325;-81
2022/07/01 08:57:51;;;;;;;2.40;1.90;;;;;;;;;;5013870;28;20281;-78
2022/07/01 09:00:20;;;;;;;1.57;1.30;;;;;;;;;;5013142;28;20604;-79
2022/07/01 09:02:54;;;;;;;3.57;2.00;;;;;;;;;;5013812;28;20220;-79
2022/07/01 09:05:21;;;;;;;1.87;1.77;;;;;;;;;;5012665;28;20735;-79
2022/07/01 09:07:49;;;;;;;1.63;1.53;;;;;;;;;;5052413;23;20269;-80
2022/07/01 09:10:18;;;;;;;4.13;2.10;;;;;;;;;;5040086;28;20234;-80
2022/07/01 09:12:45;;;;;;;2.63;2.07;;;;;;;;;;5043279;28;20284;-80
2022/07/01 09:15:27;;;;;;;2.23;2.07;;;;;;;;;;5042613;28;20615;-80
2022/07/01 09:17:54;;;;;;;2.20;2.00;;;;;;;;;;5042942;28;20286;-81
2022/07/01 09:20:28;;;;;;;2.33;2.13;;;;;;;;;;5043110;28;20245;-80
2022/07/01 09:23:03;;;;;;;2.20;2.00;;;;;;;;;;5038901;28;20213;-81
2022/07/01 09:25:31;;;;;;;2.30;2.10;;;;;;;;;;5044404;28;20301;-81
2022/07/01 09:28:13;;;;;;;2.30;2.10;;;;;;;;;;5058082;28;20207;-81
2022/07/01 09:30:42;;;;;;;1.73;1.63;;;;;;;;;;5053498;28;20237;-81
2022/07/01 09:33:13;;;;;;;2.20;1.90;;;;;;;;;;5036248;28;20218;-81
2022/07/01 09:35:41;;;;;;;4.50;2.10;;;;;;;;;;5035572;28;20225;-80
2022/07/01 09:38:08;;;;;;;2.10;1.47;;;;;;;;;;5036462;28;20234;-81
2022/07/01 09:40:47;;;;;;;1.77;1.67;;;;;;;;;;5034706;28;20241;-80
2022/07/01 09:43:15;;;;;;;1.80;1.70;;;;;;;;;;5036916;28;20197;-81
2022/07/01 09:45:51;;;;;;;4.07;2.00;;;;;;;;;;5035757;28;20201;-81
2022/07/01 09:48:18;;;;;;;2.53;2.33;;;;;;;;;;5034915;28;20237;-80
2022/07/01 09:50:45;;;;;;;2.30;2.10;;;;;;;;;;5035523;28;20207;-80
2022/07/01 09:53:14;;;;;;;2.53;2.00;;;;;;;;;;5035854;28;20211;-80
2022/07/01 09:55:41;;;;;;;2.57;2.10;;;;;;;;;;5037368;28;20646;-80
2022/07/01 09:58:08;;;;;;;2.20;2.00;;;;;;;;;;5035803;28;20317;-80
2022/07/01 10:00:36;;;;;;;3.00;2.17;;;;;;;;;;5033639;28;20242;-80
2022/07/01 10:03:05;;;;;;;2.47;2.17;;;;;;;;;;5036184;28;20624;-80
2022/07/01 10:05:34;;;;;;;2.20;2.00;;;;;;;;;;5032338;28;20285;-81
2022/07/01 10:08:08;;;;;;;2.10;2.00;;;;;;;;;;5032490;28;20234;-80
2022/07/01 10:10:40;;;;;;;4.17;2.00;;;;;;;;;;5032422;28;20612;-81
2022/07/01 10:13:09;;;;;;;2.13;1.93;;;;;;;;;;5032877;28;20214;-81
2022/07/01 10:15:36;;;;;;;2.70;2.10;;;;;;;;;;5032046;28;20230;-80
2022/07/01 10:18:04;;;;;;;2.00;1.90;;;;;;;;;;5032966;28;20718;-81
2022/07/01 10:20:31;;;;;;;2.00;1.90;;;;;;;;;;5032514;28;20803;-81
2022/07/01 10:23:02;;;;;;;1.93;1.83;;;;;;;;;;5033365;28;20209;-81
2022/07/01 10:25:34;;;;;;;3.03;1.97;;;;;;;;;;5032956;28;20241;-81
2022/07/01 10:28:28;;;;;;;3.40;2.10;;;;;;;;;;5034310;28;20309;-81
2022/07/01 10:30:59;;;;;;;2.00;1.80;;;;;;;;;;4998432;28;20218;-81
2022/07/01 10:33:32;;;;;;;1.73;1.60;;;;;;;;;;5033663;28;20706;-80
2022/07/01 10:36:05;;;;;;;1.60;1.50;;;;;;;;;;5035025;28;20194;-80
2022/07/01 10:38:32;;;;;;;3.30;1.80;;;;;;;;;;5034206;28;20636;-81
2022/07/01 10:41:09;;;;;;;1.83;1.30;;;;;;;;;;5034940;28;20210;-80
2022/07/01 10:43:36;;;;;;;1.70;1.40;;;;;;;;;;5034023;28;20234;-80
2022/07/01 10:46:04;;;;;;;1.53;1.40;;;;;;;;;;5038874;28;20210;-81
2022/07/01 10:48:34;;;;;;;1.23;1.23;;;;;;;;;;5038934;28;20206;-80
2022/07/01 10:51:01;;;;;;;3.70;1.53;;;;;;;;;;5032761;28;20195;-81
2022/07/01 10:53:46;;;;;;;3.50;1.57;;;;;;;;;;5031594;28;20706;-80
2022/07/01 10:56:16;;;;;;;3.53;1.63;;;;;;;;;;5032572;28;20238;-80
2022/07/01 10:58:43;;;;;;;1.98;1.10;;;;;;;;;;5032878;28;20231;-79
2022/07/01 11:01:10;;;;;;;2.13;1.50;;;;;;;;;;5033966;28;20657;-80
2022/07/01 11:03:39;;;;;;;1.58;1.27;;;;;;;;;;5033157;28;20234;-80
2022/07/01 11:06:07;;;;;;;2.70;1.42;;;;;;;;;;5032760;28;20747;-80
2022/07/01 11:08:34;;;;;;;1.30;1.15;;;;;;;;;;5032530;28;20249;-80
2022/07/01 11:11:05;;;;;;;2.67;1.20;;;;;;;;;;5034316;28;20206;-81
2022/07/01 11:13:32;;;;;;;4.07;1.20;;;;;;;;;;5036981;28;20211;-80
2022/07/01 11:15:59;;;;;;;1.70;1.23;;;;;;;;;;5038591;28;20217;-81
2022/07/01 11:18:26;;;;;;;1.95;1.27;;;;;;;;;;5037746;28;20658;-80
2022/07/01 11:21:03;;;;;;;2.45;1.55;;;;;;;;;;5039395;28;20202;-80
2022/07/01 11:23:30;;;;;;;1.77;1.50;;;;;;;;;;5038698;28;20217;-80
2022/07/01 11:25:57;;;;;;;2.00;1.20;;;;;;;;;;5038324;28;20211;-80
2022/07/01 11:28:24;;;;;;;1.45;1.33;;;;;;;;;;5037580;28;20210;-80
2022/07/01 11:30:59;;;;;;;2.15;1.00;;;;;;;;;;5037924;28;20834;-80
2022/07/01 11:33:26;;;;;;;1.35;1.20;;;;;;;;;;5040832;28;20214;-80
2022/07/01 11:41:25;;;;;;;3.17;1.30;;;;;;;;;;5039782;28;20202;-80
2022/07/01 11:43:53;;;;;;;2.15;1.27;;;;;;;;;;5038535;28;20706;-80
2022/07/01 11:46:20;;;;;;;1.77;1.30;;;;;;;;;;5037902;28;20219;-81
2022/07/01 11:48:49;;;;;;;1.25;1.08;;;;;;;;;;5036994;28;20240;-80
2022/07/01 11:51:19;;;;;;;1.20;1.10;;;;;;;;;;5037508;28;20207;-80
2022/07/01 11:53:48;;;;;;;1.48;1.38;;;;;;;;;;5035764;28;20238;-79
2022/07/01 11:56:16;;;;;;;1.85;1.40;;;;;;;;;;5036394;28;20246;-80
2022/07/01 11:58:47;;;;;;;1.80;1.08;;;;;;;;;;5035833;28;20241;-79
2022/07/01 12:01:24;;;;;;;1.00;0.90;;;;;;;;;;5024615;28;20203;-80
2022/07/01 12:03:51;;;;;;;1.25;1.13;;;;;;;;;;5015840;28;20230;-80
2022/07/01 12:06:20;;;;;;;4.95;1.60;;;;;;;;;;5015745;28;20285;-80
2022/07/01 12:08:48;;;;;;;1.65;1.15;;;;;;;;;;5016374;28;20238;-80
2022/07/01 12:11:15;;;;;;;2.00;1.33;;;;;;;;;;5015467;28;20211;-80
2022/07/01 12:13:42;;;;;;;1.85;1.05;;;;;;;;;;5015280;28;20234;-80
2022/07/01 12:16:10;;;;;;;0.70;0.70;;;;;;;;;;5017041;28;20578;-80
2022/07/01 12:18:37;;;;;;;4.22;1.45;;;;;;;;;;5015261;28;20242;-79
2022/07/01 12:21:04;;;;;;;1.10;0.95;;;;;;;;;;5016764;28;20295;-80
2022/07/01 12:23:36;;;;;;;1.95;0.80;;;;;;;;;;5015386;28;20199;-81
2022/07/01 12:26:06;;;;;;;3.33;1.00;;;;;;;;;;5016860;28;20255;-80
2022/07/01 12:28:34;;;;;;;0.82;0.82;;;;;;;;;;5017096;28;20242;-80
2022/07/01 12:31:06;;;;;;;1.17;0.90;;;;;;;;;;5016855;28;20207;-80
2022/07/01 12:33:33;;;;;;;1.20;0.80;;;;;;;;;;5015372;28;20233;-80
2022/07/01 12:36:02;;;;;;;0.73;0.73;;;;;;;;;;5016139;28;20207;-80
2022/07/01 12:38:29;;;;;;;1.38;0.80;;;;;;;;;;5015684;28;20211;-80
2022/07/01 12:40:58;;;;;;;0.75;0.70;;;;;;;;;;5017017;28;20231;-80
2022/07/01 12:43:35;;;;;;;3.00;0.85;;;;;;;;;;5015044;28;20291;-81
2022/07/01 12:46:04;;;;;;;0.80;0.77;;;;;;;;;;5016248;28;20206;-80
2022/07/01 12:48:48;;;;;;;0.95;0.65;;;;;;;;;;5016684;28;20234;-80
2022/07/01 12:51:16;;;;;;;2.00;0.60;;;;;;;;;;5016302;28;20593;-80
2022/07/01 12:53:43;;;;;;;3.72;1.08;;;;;;;;;;5014603;28;20263;-80
2022/07/01 12:56:23;;;;;;;0.55;0.55;;;;;;;;;;5014884;28;20214;-80
2022/07/01 12:58:52;;;;;;;1.40;0.75;;;;;;;;;;5014753;28;20610;-80
2022/07/01 13:01:19;;;;;;;4.63;0.88;;;;;;;;;;5028616;28;20580;-80
2022/07/01 13:03:46;;;;;;;1.70;0.70;;;;;;;;;;5035423;28;20725;-80
2022/07/01 13:06:14;;;;;;;1.25;0.70;;;;;;;;;;5035836;28;20219;-80
2022/07/01 13:08:41;;;;;;;0.90;0.80;;;;;;;;;;5035922;28;20284;-80
2022/07/01 13:11:08;;;;;;;0.75;0.75;;;;;;;;;;5036272;28;20210;-79
2022/07/01 13:13:36;;;;;;;0.60;0.60;;;;;;;;;;5034996;28;20242;-80
2022/07/01 13:16:03;;;;;;;1.02;0.70;;;;;;;;;;5036072;28;20210;-79
2022/07/01 13:18:30;;;;;;;3.60;0.82;;;;;;;;;;5035998;28;20576;-80
2022/07/01 13:20:57;;;;;;;0.82;0.60;;;;;;;;;;5036251;28;20568;-80
2022/07/01 13:23:24;;;;;;;1.85;1.15;;;;;;;;;;5035584;28;20203;-80
2022/07/01 13:25:51;;;;;;;0.90;0.65;;;;;;;;;;5036169;28;20210;-80
2022/07/01 13:28:19;;;;;;;1.80;0.75;;;;;;;;;;5036361;28;20210;-80
2022/07/01 13:30:47;;;;;;;1.10;0.70;;;;;;;;;;5035961;28;20213;-80
2022/07/01 13:33:14;;;;;;;0.60;0.52;;;;;;;;;;5034878;28;20223;-80
2022/07/01 13:35:41;;;;;;;0.82;0.50;;;;;;;;;;5035672;28;20206;-80
2022/07/01 13:38:08;;;;;;;1.23;0.82;;;;;;;;;;5037262;28;20256;-80
2022/07/01 13:40:36;;;;;;;0.57;0.57;;;;;;;;;;5036308;28;20238;-80
2022/07/01 13:43:03;;;;;;;1.40;0.70;;;;;;;;;;5036399;28;20199;-80
2022/07/01 13:45:30;;;;;;;1.83;0.70;;;;;;;;;;5035184;28;20241;-81
2022/07/01 13:47:58;;;;;;;0.75;0.73;;;;;;;;;;5036220;28;20223;-80
2022/07/01 13:50:25;;;;;;;1.77;0.80;;;;;;;;;;5035008;28;20234;-80
2022/07/01 13:52:52;;;;;;;0.95;0.80;;;;;;;;;;5036408;28;20230;-80
2022/07/01 13:55:19;;;;;;;1.75;0.75;;;;;;;;;;5035567;28;20238;-80
2022/07/01 13:57:47;;;;;;;1.45;0.80;;;;;;;;;;5036320;28;20223;-80
2022/07/01 14:00:14;;;;;;;0.60;0.60;;;;;;;;;;5036059;28;20622;-80
2022/07/01 14:02:41;;;;;;;0.60;0.60;;;;;;;;;;5035695;28;20663;-80
2022/07/01 14:05:10;;;;;;;0.75;0.70;;;;;;;;;;5035248;28;20234;-81
2022/07/01 14:07:37;;;;;;;1.00;0.80;;;;;;;;;;5035890;28;20236;-80
2022/07/01 14:10:05;;;;;;;2.17;0.50;;;;;;;;;;5035061;28;20609;-81
2022/07/01 14:12:32;;;;;;;1.33;0.80;;;;;;;;;;5036391;28;20227;-80
2022/07/01 14:14:59;;;;;;;0.77;0.75;;;;;;;;;;5035955;28;20432;-81
2022/07/01 14:17:26;;;;;;;9.95;2.50;;;;;;;;;;5037223;28;20835;-82
2022/07/01 14:19:56;;;;;;;3.25;1.15;;;;;;;;;;5035217;28;20245;-81
2022/07/01 14:22:24;;;;;;;1.02;0.60;;;;;;;;;;5036578;28;20202;-81
2022/07/01 14:24:51;;;;;;;0.90;0.63;;;;;;;;;;5034616;28;20234;-81
2022/07/01 14:27:19;;;;;;;0.65;0.60;;;;;;;;;;5036806;28;20234;-82
2022/07/01 14:29:46;;;;;;;1.33;0.63;;;;;;;;;;5041955;28;20235;-81
2022/07/01 14:32:13;;;;;;;0.57;0.57;;;;;;;;;;5041355;28;20207;-82
2022/07/01 14:34:40;;;;;;;2.28;0.70;;;;;;;;;;5042272;28;20242;-81
2022/07/01 14:37:07;;;;;;;1.25;0.60;;;;;;;;;;5042284;28;20231;-81
2022/07/01 14:39:35;;;;;;;1.05;0.73;;;;;;;;;;5037477;28;20238;-82
2022/07/01 14:42:02;;;;;;;0.55;0.55;;;;;;;;;;5035333;28;20214;-81
2022/07/01 14:44:29;;;;;;;1.38;0.60;;;;;;;;;;5035823;28;20249;-82
2022/07/01 14:46:56;;;;;;;0.95;0.68;;;;;;;;;;5039266;28;20231;-81
2022/07/01 14:49:23;;;;;;;0.80;0.80;;;;;;;;;;5038761;28;20234;-81
2022/07/01 14:51:51;;;;;;;2.20;0.98;;;;;;;;;;5041317;28;20207;-82
2022/07/01 14:54:18;;;;;;;1.60;0.85;;;;;;;;;;5041577;28;20234;-82
2022/07/01 14:56:46;;;;;;;1.40;0.90;;;;;;;;;;5045665;28;20218;-82
2022/07/01 14:59:13;;;;;;;0.73;0.60;;;;;;;;;;5041946;28;20737;-82
2022/07/01 15:01:40;;;;;;;1.65;0.80;;;;;;;;;;5027025;28;20226;-82
2022/07/01 15:04:08;;;;;;;0.60;0.60;;;;;;;;;;5021636;28;20715;-81